Time;durP1;ratioP1;P1;durP2;ratioP2;P2;SDS_P1;SDS_P2;PMS_P1;PMS_P2;Temp;Humidity;BMP_temperature;BMP_pressure;BME280_temperature;BME280_humidity;BME280_pressure;Samples;Min_cycle;Max_cycle;Signal;HPM_P1;HPM_P2
2022/08/08 00:00:55;;;;;;;7.22;6.53;;;12.00;99.90;;;;;;8171090;28;20042;-79
2022/08/08 00:05:04;;;;;;;8.38;6.93;;;12.00;99.90;;;;;;8227120;28;20028;-77
2022/08/08 00:09:05;;;;;;;11.85;7.82;;;12.00;99.90;;;;;;8212020;28;20036;-76
2022/08/08 00:13:29;;;;;;;8.52;7.63;;;12.10;99.90;;;;;;8212124;28;20033;-78
2022/08/08 00:17:41;;;;;;;9.07;7.18;;;12.10;99.90;;;;;;8176046;28;20510;-77
2022/08/08 00:21:59;;;;;;;7.03;6.07;;;12.10;99.90;;;;;;8191247;28;20023;-78
2022/08/08 00:26:02;;;;;;;9.02;6.30;;;11.90;99.90;;;;;;8196925;28;20035;-79
2022/08/08 00:30:08;;;;;;;6.90;6.05;;;12.00;99.90;;;;;;8240119;28;20108;-78
2022/08/08 00:38:54;;;;;;;10.57;6.72;;;11.70;99.90;;;;;;8228148;28;20046;-78
2022/08/08 00:43:36;;;;;;;10.40;7.78;;;11.50;99.90;;;;;;8181681;28;20404;-78
2022/08/08 00:48:09;;;;;;;7.80;5.93;;;11.50;99.90;;;;;;8178045;28;20093;-77
2022/08/08 00:52:34;;;;;;;7.20;6.07;;;11.60;99.90;;;;;;8231482;28;20458;-78
2022/08/08 00:56:49;;;;;;;7.68;5.90;;;11.60;99.90;;;;;;8180421;28;21449;-77
2022/08/08 01:01:20;;;;;;;7.10;6.38;;;11.60;99.90;;;;;;8210861;28;20031;-77
2022/08/08 01:05:57;;;;;;;8.50;6.53;;;11.30;99.90;;;;;;8210731;28;20024;-78
2022/08/08 01:10:27;;;;;;;8.95;8.05;;;11.30;99.90;;;;;;8215430;28;20099;-78
2022/08/08 01:15:02;;;;;;;10.93;7.50;;;11.20;99.90;;;;;;8192914;28;20233;-77
2022/08/08 01:19:26;;;;;;;9.70;7.22;;;11.30;99.90;;;;;;8244181;28;20126;-78
2022/08/08 01:23:38;;;;;;;6.93;6.18;;;11.30;99.90;;;;;;8187585;28;20099;-77
2022/08/08 01:27:51;;;;;;;8.20;6.88;;;11.10;99.90;;;;;;8206734;28;20048;-78
2022/08/08 01:32:26;;;;;;;9.52;7.85;;;11.00;99.90;;;;;;8215609;28;20032;-78
2022/08/08 01:36:42;;;;;;;13.18;9.30;;;10.80;99.90;;;;;;8191621;28;20025;-78
2022/08/08 01:40:55;;;;;;;8.25;7.32;;;10.80;99.90;;;;;;8174967;28;20136;-77
2022/08/08 01:45:05;;;;;;;12.27;8.52;;;10.80;99.90;;;;;;8215089;28;20431;-76
2022/08/08 01:49:30;;;;;;;12.38;9.38;;;10.70;99.90;;;;;;8250840;28;20389;-77
2022/08/08 01:53:44;;;;;;;10.27;7.97;;;10.70;99.90;;;;;;8202254;28;20168;-78
2022/08/08 01:57:48;;;;;;;13.15;9.30;;;10.70;99.90;;;;;;8167571;28;20019;-78
2022/08/08 02:02:10;;;;;;;12.48;10.75;;;10.70;99.90;;;;;;8223361;28;20711;-77
2022/08/08 02:06:34;;;;;;;11.38;9.32;;;10.70;99.90;;;;;;8258246;28;20025;-78
2022/08/08 02:10:46;;;;;;;9.05;7.05;;;10.70;99.90;;;;;;8262327;28;20054;-76
2022/08/08 02:15:11;;;;;;;12.93;7.93;;;10.80;99.90;;;;;;8248728;28;20032;-79
2022/08/08 02:19:38;;;;;;;11.80;8.20;;;10.70;99.90;;;;;;8204913;28;20022;-77
2022/08/08 02:23:46;;;;;;;11.40;9.25;;;10.50;99.90;;;;;;8235578;28;20046;-77
2022/08/08 02:27:52;;;;;;;13.25;9.30;;;10.40;99.90;;;;;;8229789;28;20032;-78
2022/08/08 02:32:27;;;;;;;13.65;9.18;;;10.40;99.90;;;;;;8223180;28;20535;-77
2022/08/08 02:36:45;;;;;;;10.07;8.18;;;10.40;99.90;;;;;;8161168;28;20042;-78
2022/08/08 02:41:09;;;;;;;12.27;8.82;;;10.40;99.90;;;;;;8214684;28;20034;-78
2022/08/08 02:45:12;;;;;;;13.05;10.55;;;10.30;99.90;;;;;;8224046;28;20537;-76
2022/08/08 02:49:30;;;;;;;11.85;8.68;;;10.30;99.90;;;;;;8182954;28;20024;-78
2022/08/08 02:53:57;;;;;;;13.48;9.57;;;10.40;99.90;;;;;;8224987;28;20650;-78
2022/08/08 02:58:09;;;;;;;11.35;8.98;;;10.30;99.90;;;;;;8190112;28;20056;-78
2022/08/08 03:02:29;;;;;;;14.63;9.45;;;10.20;99.90;;;;;;8287915;28;20037;-78
2022/08/08 03:06:54;;;;;;;12.18;8.15;;;10.10;99.90;;;;;;8224837;28;20516;-77
2022/08/08 03:11:13;;;;;;;8.27;6.97;;;10.20;99.90;;;;;;8230081;28;20427;-78
2022/08/08 03:15:36;;;;;;;10.75;8.13;;;10.30;99.90;;;;;;8295542;28;20111;-78
2022/08/08 03:19:58;;;;;;;10.65;8.75;;;10.00;99.90;;;;;;8267728;28;20032;-79
2022/08/08 03:23:59;;;;;;;15.43;9.88;;;9.90;99.90;;;;;;8251149;28;20029;-78
2022/08/08 03:28:03;;;;;;;15.23;9.38;;;9.90;99.90;;;;;;8238927;28;20514;-78
2022/08/08 03:36:26;;;;;;;11.68;9.55;;;9.80;99.90;;;;;;8248253;28;20169;-78
2022/08/08 03:40:27;;;;;;;16.45;10.85;;;9.80;99.90;;;;;;8234441;28;20043;-78
2022/08/08 03:44:34;;;;;;;16.45;11.18;;;9.80;99.90;;;;;;8191777;28;20116;-79
2022/08/08 03:48:34;;;;;;;15.88;10.45;;;9.80;99.90;;;;;;8170646;28;20024;-78
2022/08/08 03:52:35;;;;;;;15.45;10.13;;;9.90;99.90;;;;;;8255607;28;20071;-78
2022/08/08 03:56:35;;;;;;;11.50;8.75;;;9.80;99.90;;;;;;8211667;28;20028;-79
2022/08/08 04:00:36;;;;;;;11.10;9.25;;;9.90;99.90;;;;;;8226087;28;20032;-78
2022/08/08 04:04:36;;;;;;;12.98;10.02;;;9.90;99.90;;;;;;8246640;28;20037;-77
2022/08/08 04:08:37;;;;;;;12.20;9.73;;;9.70;99.90;;;;;;8308720;28;20060;-78
2022/08/08 04:12:40;;;;;;;11.38;9.15;;;9.60;99.90;;;;;;8209973;28;20039;-78
2022/08/08 04:16:40;;;;;;;10.25;8.68;;;9.80;99.90;;;;;;8266065;28;20030;-79
2022/08/08 04:20:41;;;;;;;11.25;9.15;;;9.80;99.90;;;;;;8200682;28;20110;-77
2022/08/08 04:24:41;;;;;;;14.02;9.73;;;9.70;99.90;;;;;;8229211;28;20395;-78
2022/08/08 04:28:42;;;;;;;14.27;9.60;;;9.80;99.90;;;;;;8218230;28;20029;-78
2022/08/08 04:32:42;;;;;;;12.52;9.10;;;9.90;99.90;;;;;;8263000;28;20480;-78
2022/08/08 04:36:43;;;;;;;12.20;9.30;;;10.10;99.90;;;;;;8181295;28;20089;-77
2022/08/08 04:40:43;;;;;;;12.65;10.05;;;10.20;99.90;;;;;;8203249;28;20063;-78
2022/08/08 04:44:44;;;;;;;19.60;10.10;;;10.30;99.90;;;;;;8220092;28;20035;-79
2022/08/08 04:48:44;;;;;;;10.13;8.63;;;10.80;99.90;;;;;;8163221;28;20027;-78
2022/08/08 04:52:45;;;;;;;8.70;7.63;;;11.20;99.90;;;;;;8182118;28;20036;-79
2022/08/08 04:56:45;;;;;;;10.93;8.15;;;11.20;99.90;;;;;;8214351;28;20059;-79
2022/08/08 05:00:46;;;;;;;9.05;8.13;;;11.20;99.90;;;;;;8168133;28;20034;-78
2022/08/08 05:04:47;;;;;;;13.60;7.93;;;11.20;99.90;;;;;;8203188;28;20049;-78
2022/08/08 05:08:48;;;;;;;8.70;7.60;;;11.40;99.90;;;;;;8183572;28;20661;-77
2022/08/08 05:12:49;;;;;;;8.65;7.57;;;11.40;99.90;;;;;;8176016;28;20514;-77
2022/08/08 05:16:49;;;;;;;6.13;5.53;;;11.60;99.90;;;;;;8217018;28;20038;-76
2022/08/08 05:20:50;;;;;;;5.88;5.28;;;11.90;99.90;;;;;;8288286;28;20036;-78
2022/08/08 05:24:50;;;;;;;6.20;5.07;;;11.70;99.90;;;;;;8202096;28;20063;-78
2022/08/08 05:28:51;;;;;;;8.73;6.25;;;11.40;99.90;;;;;;8179974;28;20013;-78
2022/08/08 05:32:52;;;;;;;6.95;6.25;;;11.70;99.90;;;;;;8217589;28;20025;-78
2022/08/08 05:36:53;;;;;;;8.73;5.78;;;11.90;99.90;;;;;;8216856;28;20476;-78
2022/08/08 05:40:55;;;;;;;8.07;6.75;;;12.30;99.90;;;;;;8204017;28;20035;-78
2022/08/08 05:45:00;;;;;;;7.13;6.43;;;12.40;99.90;;;;;;8166504;28;20028;-78
2022/08/08 05:49:02;;;;;;;12.32;7.88;;;12.90;99.90;;;;;;8206820;28;20042;-78
2022/08/08 05:53:03;;;;;;;11.30;7.88;;;13.20;99.90;;;;;;8160649;28;20547;-79
2022/08/08 05:57:10;;;;;;;8.48;7.10;;;13.50;99.90;;;;;;8211033;28;20032;-79
2022/08/08 06:01:11;;;;;;;6.78;6.07;;;14.50;99.90;;;;;;8280068;28;20512;-79
2022/08/08 06:05:16;;;;;;;6.65;5.95;;;15.50;99.90;;;;;;8304524;28;20031;-79
2022/08/08 06:09:21;;;;;;;5.55;5.05;;;16.50;99.90;;;;;;8257312;28;20128;-78
2022/08/08 06:13:23;;;;;;;5.75;5.25;;;17.60;99.90;;;;;;8297541;28;20298;-77
2022/08/08 06:17:25;;;;;;;5.72;5.13;;;18.60;99.90;;;;;;8297930;28;20040;-79
2022/08/08 06:21:26;;;;;;;5.50;4.70;;;18.70;99.90;;;;;;8287129;28;20483;-78
2022/08/08 06:25:28;;;;;;;8.25;4.60;;;18.60;99.90;;;;;;8263351;28;20476;-79
2022/08/08 06:29:38;;;;;;;4.43;4.03;;;18.30;99.90;;;;;;8248930;28;20114;-79
2022/08/08 06:33:49;;;;;;;4.63;4.22;;;17.90;99.90;;;;;;8213701;28;20014;-79
2022/08/08 06:38:05;;;;;;;6.05;4.40;;;18.10;99.90;;;;;;8172515;28;20015;-79
2022/08/08 06:42:11;;;;;;;4.53;4.13;;;18.80;99.90;;;;;;8193064;28;20035;-79
2022/08/08 06:46:13;;;;;;;5.90;4.65;;;19.30;99.90;;;;;;8185417;28;20118;-79
2022/08/08 06:50:14;;;;;;;4.07;3.67;;;19.70;99.90;;;;;;8185457;28;20031;-79
2022/08/08 06:54:15;;;;;;;5.03;4.43;;;20.60;99.90;;;;;;8158118;28;20038;-79
2022/08/08 06:58:15;;;;;;;4.10;3.75;;;21.10;99.90;;;;;;8222210;28;20293;-80
2022/08/08 07:02:24;;;;;;;4.53;3.20;;;22.00;99.90;;;;;;8311407;28;20033;-78
2022/08/08 07:06:29;;;;;;;4.43;3.10;;;22.40;99.90;;;;;;8267875;28;20083;-79
2022/08/08 07:10:34;;;;;;;3.92;3.35;;;22.60;99.90;;;;;;8310047;28;20023;-79
2022/08/08 07:14:57;;;;;;;5.20;3.08;;;23.10;99.90;;;;;;8256768;28;20036;-79
2022/08/08 07:19:26;;;;;;;3.70;3.40;;;23.30;99.90;;;;;;8213177;28;20057;-80
2022/08/08 07:23:34;;;;;;;3.25;2.80;;;23.40;99.90;;;;;;8259546;28;20028;-79
2022/08/08 07:27:40;;;;;;;3.13;2.83;;;23.90;99.90;;;;;;8191127;28;20021;-79
2022/08/08 07:31:42;;;;;;;2.88;2.45;;;23.80;99.90;;;;;;8184421;28;20031;-80
2022/08/08 07:35:46;;;;;;;3.58;2.60;;;23.70;99.90;;;;;;8211093;28;20031;-79
2022/08/08 07:39:47;;;;;;;3.40;2.60;;;23.90;99.90;;;;;;8234309;28;20048;-80
2022/08/08 07:43:49;;;;;;;2.70;2.50;;;23.70;99.90;;;;;;8197521;28;20032;-79
2022/08/08 07:47:53;;;;;;;4.35;3.10;;;23.60;99.90;;;;;;8185406;28;20020;-80
2022/08/08 07:51:55;;;;;;;4.30;2.97;;;23.90;99.90;;;;;;8253477;28;20634;-79
2022/08/08 07:56:00;;;;;;;3.00;2.60;;;23.50;99.90;;;;;;8247640;28;20029;-80
2022/08/08 08:00:06;;;;;;;4.18;2.55;;;23.50;99.90;;;;;;8245810;28;20609;-79
2022/08/08 08:04:13;;;;;;;2.65;2.45;;;24.10;99.90;;;;;;8308424;28;20038;-80
2022/08/08 08:08:19;;;;;;;2.83;2.15;;;24.60;99.90;;;;;;8302289;28;20033;-79
2022/08/08 08:12:21;;;;;;;2.38;2.15;;;24.70;99.90;;;;;;8276525;28;20025;-80
2022/08/08 08:16:31;;;;;;;5.88;2.38;;;24.90;99.90;;;;;;8308791;28;20029;-80
2022/08/08 08:20:33;;;;;;;2.40;2.20;;;24.10;99.90;;;;;;8302693;28;20031;-79
2022/08/08 08:24:33;;;;;;;3.90;2.00;;;24.10;99.90;;;;;;8308621;28;20035;-80
2022/08/08 08:28:34;;;;;;;2.72;2.00;;;24.30;99.90;;;;;;8231600;28;20484;-80
2022/08/08 08:32:34;;;;;;;2.67;1.88;;;24.40;99.90;;;;;;8170144;28;20164;-80
2022/08/08 08:36:35;;;;;;;2.10;1.77;;;24.60;99.90;;;;;;8217259;28;20522;-80
2022/08/08 08:40:36;;;;;;;2.47;2.00;;;25.10;99.90;;;;;;8259905;28;20030;-80
2022/08/08 08:44:37;;;;;;;2.50;1.88;;;25.10;99.90;;;;;;8204733;28;20491;-80
2022/08/08 08:48:39;;;;;;;2.45;2.25;;;25.30;99.90;;;;;;8178165;28;20126;-80
2022/08/08 08:52:42;;;;;;;3.72;2.22;;;24.70;99.90;;;;;;8228841;28;20021;-79
2022/08/08 08:56:44;;;;;;;3.08;2.20;;;24.10;99.90;;;;;;8226330;28;20017;-80
2022/08/08 09:00:45;;;;;;;3.42;2.10;;;24.60;99.90;;;;;;8235899;28;20026;-80
2022/08/08 09:04:48;;;;;;;2.80;2.03;;;25.30;99.90;;;;;;8307856;28;20029;-79
2022/08/08 09:08:53;;;;;;;4.10;2.03;;;25.70;99.90;;;;;;8307775;28;20074;-80
2022/08/08 09:12:55;;;;;;;2.55;1.95;;;25.70;99.90;;;;;;8301357;28;20037;-81
2022/08/08 09:16:56;;;;;;;3.17;2.05;;;25.50;99.90;;;;;;8299641;28;20485;-80
2022/08/08 09:20:57;;;;;;;2.10;1.90;;;24.80;99.90;;;;;;8300582;28;20032;-80
2022/08/08 09:24:58;;;;;;;2.40;2.05;;;24.50;99.90;;;;;;8307363;28;20032;-80
2022/08/08 09:29:01;;;;;;;3.83;2.00;;;24.60;99.90;;;;;;8221457;28;20019;-79
2022/08/08 09:33:03;;;;;;;3.38;1.90;;;25.20;99.90;;;;;;8203486;28;20028;-80
2022/08/08 09:37:09;;;;;;;4.22;1.90;;;25.50;99.90;;;;;;8236360;28;20656;-78
2022/08/08 09:41:12;;;;;;;3.00;2.20;;;25.10;99.90;;;;;;8174852;28;20031;-79
2022/08/08 09:45:36;;;;;;;2.40;2.20;;;24.40;99.90;;;;;;8201660;28;20133;-80
2022/08/08 09:49:37;;;;;;;2.70;2.10;;;24.90;99.90;;;;;;8170518;28;20016;-80
2022/08/08 09:53:48;;;;;;;2.47;1.65;;;25.50;99.90;;;;;;8203666;28;20501;-79
2022/08/08 09:57:54;;;;;;;4.57;1.85;;;25.70;99.90;;;;;;8207157;28;20034;-79
2022/08/08 10:01:58;;;;;;;3.55;1.83;;;24.80;99.90;;;;;;8256157;28;20036;-80
2022/08/08 10:05:59;;;;;;;2.40;1.60;;;24.30;99.90;;;;;;8299413;28;20409;-79
2022/08/08 10:10:00;;;;;;;2.88;1.92;;;24.50;99.90;;;;;;8305552;28;20030;-80
2022/08/08 10:14:03;;;;;;;2.45;1.50;;;24.40;99.90;;;;;;8300011;28;20523;-79
2022/08/08 10:18:04;;;;;;;2.92;1.45;;;24.60;99.90;;;;;;8298474;28;20116;-80
2022/08/08 10:22:06;;;;;;;3.83;1.73;;;24.70;93.80;;;;;;8305465;28;20037;-80
2022/08/08 10:26:09;;;;;;;3.28;1.50;;;24.50;96.90;;;;;;8296901;28;20025;-80
2022/08/08 10:30:10;;;;;;;3.03;1.35;;;24.60;95.00;;;;;;8170252;28;20039;-80
2022/08/08 10:34:14;;;;;;;1.85;1.58;;;24.90;94.60;;;;;;8197705;28;20440;-80
2022/08/08 10:38:18;;;;;;;2.38;1.70;;;25.70;96.30;;;;;;8201815;28;20052;-80
2022/08/08 10:42:20;;;;;;;3.03;1.85;;;26.30;93.70;;;;;;8219573;28;20158;-80
2022/08/08 10:46:25;;;;;;;1.50;1.40;;;26.40;91.80;;;;;;8211004;28;20028;-81
2022/08/08 10:50:34;;;;;;;3.88;1.42;;;27.00;92.80;;;;;;8194215;28;20042;-79
2022/08/08 10:54:34;;;;;;;5.10;1.50;;;27.80;91.20;;;;;;8179453;28;20035;-80
2022/08/08 10:58:35;;;;;;;3.50;1.65;;;28.00;84.50;;;;;;8205134;28;20020;-79
2022/08/08 11:02:35;;;;;;;1.48;1.38;;;27.50;89.80;;;;;;8277024;28;20217;-80
2022/08/08 11:06:37;;;;;;;2.40;1.65;;;27.10;92.50;;;;;;8297466;28;20022;-81
2022/08/08 11:10:37;;;;;;;1.50;1.40;;;27.50;91.00;;;;;;8297660;28;20045;-81
2022/08/08 11:14:48;;;;;;;2.13;1.42;;;28.40;86.70;;;;;;8296710;28;20485;-79
2022/08/08 11:18:50;;;;;;;1.40;1.30;;;29.20;83.90;;;;;;8297239;28;20152;-80
2022/08/08 11:23:01;;;;;;;3.33;1.48;;;29.40;81.30;;;;;;8310980;28;20030;-79
2022/08/08 11:27:02;;;;;;;2.78;1.40;;;29.30;82.60;;;;;;8270344;28;20024;-80
2022/08/08 11:31:04;;;;;;;3.30;1.50;;;29.80;87.40;;;;;;8211682;28;20060;-80
2022/08/08 11:35:09;;;;;;;1.90;1.50;;;30.20;80.80;;;;;;8207668;28;20042;-79
2022/08/08 11:39:11;;;;;;;2.05;1.52;;;30.10;71.40;;;;;;8274395;28;20075;-79
2022/08/08 11:43:13;;;;;;;3.38;1.30;;;30.50;68.60;;;;;;8237810;28;20558;-81
2022/08/08 11:47:14;;;;;;;3.47;1.60;;;29.10;69.90;;;;;;8281790;28;20118;-79
2022/08/08 11:51:17;;;;;;;1.98;1.40;;;27.80;86.40;;;;;;8213816;28;20450;-80
2022/08/08 11:55:21;;;;;;;3.22;1.30;;;28.60;73.60;;;;;;8188061;28;20027;-79
2022/08/08 11:59:31;;;;;;;2.67;1.30;;;29.00;73.90;;;;;;8209371;28;20028;-80
2022/08/08 12:03:32;;;;;;;3.90;1.27;;;30.00;72.90;;;;;;8302012;28;20034;-80
2022/08/08 12:07:50;;;;;;;1.70;1.60;;;30.20;68.00;;;;;;8302273;28;20035;-79
2022/08/08 12:11:51;;;;;;;1.83;1.52;;;31.10;67.50;;;;;;8284201;28;20019;-80
2022/08/08 12:15:52;;;;;;;3.67;1.50;;;31.40;61.20;;;;;;8297598;28;20027;-80
2022/08/08 12:19:56;;;;;;;1.85;1.50;;;30.70;62.80;;;;;;8315805;28;20029;-80
2022/08/08 12:24:14;;;;;;;2.17;1.30;;;31.50;63.00;;;;;;8307111;28;20017;-80
2022/08/08 12:28:15;;;;;;;2.58;1.55;;;31.60;58.40;;;;;;8243057;28;20533;-81
2022/08/08 12:32:16;;;;;;;2.10;1.52;;;30.90;61.80;;;;;;8218650;28;20184;-80
2022/08/08 12:36:16;;;;;;;3.00;1.35;;;30.80;63.50;;;;;;8204327;28;20032;-80
2022/08/08 12:40:17;;;;;;;3.03;1.50;;;30.70;64.30;;;;;;8280292;28;20129;-80
2022/08/08 12:44:27;;;;;;;2.22;1.30;;;30.80;61.90;;;;;;8204769;28;20029;-80
2022/08/08 12:48:28;;;;;;;2.20;1.23;;;31.70;65.00;;;;;;8242285;28;20436;-80
2022/08/08 12:52:33;;;;;;;1.63;1.30;;;33.20;55.80;;;;;;8175609;28;20046;-79
2022/08/08 12:56:38;;;;;;;1.95;1.38;;;32.60;60.00;;;;;;8215226;28;20106;-79
2022/08/08 13:00:39;;;;;;;1.70;1.40;;;31.90;58.80;;;;;;8211801;28;20156;-80
2022/08/08 13:04:52;;;;;;;3.78;1.48;;;32.40;61.60;;;;;;8298920;28;20021;-79
2022/08/08 13:08:53;;;;;;;3.17;1.38;;;33.00;56.00;;;;;;8299779;28;20033;-80
2022/08/08 13:13:00;;;;;;;1.95;1.20;;;34.10;53.90;;;;;;8305648;28;20604;-78
2022/08/08 13:17:01;;;;;;;1.58;1.35;;;34.50;50.90;;;;;;8264118;28;20112;-80
2022/08/08 13:21:02;;;;;;;6.63;1.60;;;34.60;51.80;;;;;;8300266;28;20044;-80
2022/08/08 13:25:04;;;;;;;2.10;1.50;;;35.20;53.20;;;;;;8298786;28;20017;-80
2022/08/08 13:29:10;;;;;;;2.42;1.23;;;33.80;55.10;;;;;;8211667;28;20059;-81
2022/08/08 13:33:14;;;;;;;3.25;1.50;;;33.80;53.30;;;;;;8259061;28;20112;-80
2022/08/08 13:37:14;;;;;;;2.08;1.38;;;33.10;56.70;;;;;;8255441;28;20063;-78
2022/08/08 13:41:15;;;;;;;2.08;1.50;;;33.30;55.50;;;;;;8202416;28;20038;-80
2022/08/08 13:45:19;;;;;;;1.70;1.50;;;32.90;57.10;;;;;;8179538;28;20066;-78
2022/08/08 13:49:20;;;;;;;1.60;1.50;;;32.60;54.90;;;;;;8180883;28;20034;-79
2022/08/08 13:53:30;;;;;;;1.88;1.50;;;31.60;59.30;;;;;;8181717;28;20028;-79
2022/08/08 13:57:33;;;;;;;5.43;1.45;;;32.60;59.60;;;;;;8223138;28;20024;-79
2022/08/08 14:01:34;;;;;;;2.08;1.40;;;31.60;61.90;;;;;;8244473;28;20035;-78
2022/08/08 14:05:35;;;;;;;2.70;1.55;;;32.80;56.50;;;;;;8296574;28;20077;-80
2022/08/08 14:09:39;;;;;;;1.63;1.50;;;31.20;63.10;;;;;;8262431;28;20078;-78
2022/08/08 14:13:40;;;;;;;1.67;1.50;;;30.20;60.40;;;;;;8296889;28;20060;-80
2022/08/08 14:17:41;;;;;;;3.17;1.58;;;30.60;60.10;;;;;;8296122;28;20025;-80
2022/08/08 14:21:43;;;;;;;1.67;1.58;;;32.50;56.60;;;;;;8297878;28;20025;-79
2022/08/08 14:25:47;;;;;;;3.65;1.42;;;32.20;54.40;;;;;;8295532;28;20021;-79
2022/08/08 14:29:53;;;;;;;1.65;1.45;;;33.00;54.90;;;;;;8223416;28;20488;-79
2022/08/08 14:33:56;;;;;;;3.42;1.67;;;35.50;50.20;;;;;;8180130;28;20092;-79
2022/08/08 14:38:00;;;;;;;1.58;1.42;;;35.40;49.00;;;;;;8186458;28;20019;-78
2022/08/08 14:42:02;;;;;;;2.53;1.40;;;32.70;55.30;;;;;;8179935;28;20042;-79
2022/08/08 14:46:04;;;;;;;3.80;1.48;;;32.70;53.00;;;;;;8185003;28;20598;-79
2022/08/08 14:50:09;;;;;;;4.63;1.80;;;33.00;57.50;;;;;;8179798;28;20535;-80
2022/08/08 14:54:10;;;;;;;1.60;1.50;;;31.80;57.00;;;;;;8170358;28;20031;-80
2022/08/08 14:58:11;;;;;;;1.88;1.42;;;32.10;53.00;;;;;;8203124;28;20037;-79
2022/08/08 15:02:11;;;;;;;2.28;1.40;;;31.10;56.80;;;;;;8268795;28;20026;-81
2022/08/08 15:06:12;;;;;;;3.42;1.40;;;32.40;56.10;;;;;;8295958;28;20613;-80
2022/08/08 15:10:15;;;;;;;1.80;1.70;;;33.20;54.30;;;;;;8296450;28;20116;-79
2022/08/08 15:14:15;;;;;;;2.30;1.70;;;33.40;50.30;;;;;;8300113;28;20027;-79
2022/08/08 15:18:16;;;;;;;1.90;1.45;;;33.00;52.00;;;;;;8304046;28;20030;-80
2022/08/08 15:22:17;;;;;;;1.65;1.55;;;32.00;56.60;;;;;;8269261;28;20051;-79
2022/08/08 15:26:18;;;;;;;2.13;1.42;;;31.40;54.70;;;;;;8301804;28;20024;-80
2022/08/08 15:30:19;;;;;;;3.67;1.60;;;31.90;54.90;;;;;;8176805;28;20058;-80
2022/08/08 15:34:20;;;;;;;2.65;1.35;;;32.40;54.00;;;;;;8243636;28;20032;-80
2022/08/08 15:38:21;;;;;;;1.92;1.40;;;34.00;54.10;;;;;;8227912;28;20028;-80
2022/08/08 15:42:22;;;;;;;2.55;1.50;;;34.80;50.70;;;;;;8221656;28;20032;-80
2022/08/08 15:46:23;;;;;;;2.22;1.60;;;35.50;47.30;;;;;;8176188;28;20042;-80
2022/08/08 15:50:23;;;;;;;4.28;1.40;;;33.90;50.10;;;;;;8183939;28;20055;-79
2022/08/08 15:54:24;;;;;;;2.38;1.40;;;30.90;56.70;;;;;;8169856;28;20039;-79
2022/08/08 15:58:26;;;;;;;2.40;1.55;;;28.50;57.50;;;;;;8236618;28;20468;-79
2022/08/08 16:02:27;;;;;;;2.10;1.70;;;26.60;66.10;;;;;;8281939;28;20401;-78
2022/08/08 16:06:28;;;;;;;1.95;1.60;;;25.60;70.80;;;;;;8301894;28;20034;-79
2022/08/08 16:10:29;;;;;;;2.58;1.80;;;25.30;67.60;;;;;;8301011;28;20031;-80
2022/08/08 16:14:29;;;;;;;2.75;1.55;;;25.20;73.40;;;;;;8274435;28;20026;-80
2022/08/08 16:18:30;;;;;;;3.63;1.70;;;25.10;73.10;;;;;;8301979;28;20058;-79
2022/08/08 16:22:31;;;;;;;2.13;1.92;;;25.00;71.70;;;;;;8232793;28;20423;-79
2022/08/08 16:26:34;;;;;;;2.35;1.70;;;24.90;73.30;;;;;;8260622;28;20023;-79
2022/08/08 16:30:35;;;;;;;2.03;1.52;;;25.00;73.00;;;;;;8164132;28;20028;-80
2022/08/08 16:34:35;;;;;;;2.92;1.52;;;24.80;70.90;;;;;;8266046;28;20032;-80
2022/08/08 16:38:36;;;;;;;2.72;1.33;;;24.60;72.60;;;;;;8281620;28;20029;-80
2022/08/08 16:42:37;;;;;;;2.72;1.50;;;24.60;69.60;;;;;;8210832;28;20518;-79
2022/08/08 16:46:37;;;;;;;4.53;1.30;;;24.60;74.80;;;;;;8175547;28;20059;-79
2022/08/08 16:50:38;;;;;;;1.85;1.45;;;24.40;72.00;;;;;;8219653;28;20101;-80
2022/08/08 16:54:38;;;;;;;4.25;1.40;;;24.40;71.00;;;;;;8194994;28;20404;-79
2022/08/08 16:58:39;;;;;;;2.53;1.23;;;24.20;72.10;;;;;;8256189;28;20028;-80
2022/08/08 17:02:39;;;;;;;3.95;1.42;;;24.20;73.50;;;;;;8319670;28;20022;-80
2022/08/08 17:06:40;;;;;;;3.42;1.30;;;24.30;71.00;;;;;;8299088;28;20033;-79
2022/08/08 17:10:41;;;;;;;2.85;1.38;;;23.90;70.60;;;;;;8306319;28;20024;-79
2022/08/08 17:14:42;;;;;;;2.58;1.50;;;23.60;74.70;;;;;;8298610;28;20167;-79
2022/08/08 17:18:43;;;;;;;3.45;1.70;;;23.30;74.30;;;;;;8299013;28;20362;-80
2022/08/08 17:22:44;;;;;;;3.67;1.70;;;23.10;78.40;;;;;;8299193;28;20044;-80
2022/08/08 17:26:44;;;;;;;2.85;1.40;;;23.10;78.80;;;;;;8249629;28;20036;-79
2022/08/08 17:30:45;;;;;;;6.63;1.52;;;23.00;79.70;;;;;;8188763;28;20028;-79
2022/08/08 17:34:50;;;;;;;2.83;1.30;;;22.80;77.30;;;;;;8194207;28;20034;-79
2022/08/08 17:38:54;;;;;;;2.10;1.17;;;22.60;79.10;;;;;;8167821;28;20024;-79
2022/08/08 17:42:55;;;;;;;3.17;1.50;;;22.50;82.00;;;;;;8269924;28;20107;-80
2022/08/08 17:46:55;;;;;;;3.90;1.60;;;22.10;86.30;;;;;;8194818;28;20378;-79
2022/08/08 17:50:56;;;;;;;3.35;1.38;;;21.80;87.20;;;;;;8183068;28;20114;-79
2022/08/08 17:54:57;;;;;;;5.45;1.40;;;21.60;85.50;;;;;;8175100;28;20446;-79
2022/08/08 17:58:58;;;;;;;2.90;1.45;;;21.30;88.90;;;;;;8237135;28;20034;-80
2022/08/08 18:02:59;;;;;;;3.17;1.40;;;20.90;90.90;;;;;;8303844;28;20379;-79
2022/08/08 18:07:01;;;;;;;4.30;1.52;;;20.80;86.00;;;;;;8296543;28;20079;-80
2022/08/08 18:11:05;;;;;;;1.65;1.20;;;20.60;91.40;;;;;;8304981;28;20752;-79
2022/08/08 18:15:06;;;;;;;1.60;1.50;;;20.50;91.90;;;;;;8296626;28;20480;-79
2022/08/08 18:19:07;;;;;;;1.73;1.60;;;20.30;96.10;;;;;;8235105;28;20079;-80
2022/08/08 18:23:07;;;;;;;3.10;2.03;;;20.10;96.70;;;;;;8263821;28;20629;-80
2022/08/08 18:27:08;;;;;;;1.95;1.73;;;20.20;97.40;;;;;;8265836;28;20107;-79
2022/08/08 18:31:08;;;;;;;2.53;1.90;;;20.10;99.70;;;;;;8214090;28;20084;-79
2022/08/08 18:35:09;;;;;;;5.82;1.95;;;19.80;99.90;;;;;;8173987;28;20043;-80
2022/08/08 18:39:09;;;;;;;2.63;1.83;;;19.50;99.90;;;;;;8209887;28;20092;-79
2022/08/08 18:43:10;;;;;;;3.22;2.20;;;19.40;99.90;;;;;;8219206;28;20437;-79
2022/08/08 18:47:10;;;;;;;4.32;2.15;;;19.60;99.90;;;;;;8201344;28;20036;-79
2022/08/08 18:51:11;;;;;;;3.00;2.30;;;19.40;99.90;;;;;;8206714;28;20101;-79
2022/08/08 18:55:11;;;;;;;4.05;2.30;;;19.20;99.90;;;;;;8207071;28;20053;-80
2022/08/08 18:59:12;;;;;;;3.85;2.40;;;19.20;99.90;;;;;;8212457;28;20076;-80
2022/08/08 19:03:12;;;;;;;4.35;2.75;;;18.90;99.90;;;;;;8307149;28;20037;-80
2022/08/08 19:07:13;;;;;;;3.45;2.42;;;18.60;99.90;;;;;;8311214;28;20482;-79
2022/08/08 19:11:14;;;;;;;3.60;3.10;;;18.40;99.90;;;;;;8310173;28;20115;-79
2022/08/08 19:15:14;;;;;;;4.68;2.70;;;18.40;99.90;;;;;;8302431;28;20033;-80
2022/08/08 19:19:16;;;;;;;3.75;2.85;;;18.20;99.90;;;;;;8303445;28;20045;-79
2022/08/08 19:23:17;;;;;;;5.20;3.35;;;18.00;99.90;;;;;;8303745;28;20105;-80
2022/08/08 19:27:17;;;;;;;3.17;2.88;;;17.80;99.90;;;;;;8243376;28;20404;-80
2022/08/08 19:31:18;;;;;;;5.03;3.40;;;17.70;99.90;;;;;;8234201;28;20025;-80
2022/08/08 19:35:19;;;;;;;3.35;3.00;;;17.80;99.90;;;;;;8178559;28;20031;-80
2022/08/08 19:39:19;;;;;;;8.90;3.22;;;17.50;99.90;;;;;;8185632;28;20036;-80
2022/08/08 19:43:20;;;;;;;5.57;3.65;;;17.40;99.90;;;;;;8185193;28;20070;-79
2022/08/08 19:47:20;;;;;;;5.28;3.90;;;17.30;99.90;;;;;;8211958;28;20481;-79
2022/08/08 19:51:21;;;;;;;5.43;3.83;;;17.10;99.90;;;;;;8233828;28;20033;-80
2022/08/08 19:55:21;;;;;;;4.50;4.05;;;16.90;99.90;;;;;;8175015;28;20044;-80
2022/08/08 19:59:22;;;;;;;5.88;4.57;;;16.70;99.90;;;;;;8201888;28;20058;-80
2022/08/08 20:03:22;;;;;;;5.18;4.40;;;16.80;99.90;;;;;;8267534;28;20036;-80
2022/08/08 20:07:23;;;;;;;4.70;4.30;;;16.60;99.90;;;;;;8307743;28;20018;-80
2022/08/08 20:11:24;;;;;;;4.95;4.20;;;16.50;99.90;;;;;;8296710;28;20036;-80
2022/08/08 20:15:25;;;;;;;4.75;4.32;;;16.20;99.90;;;;;;8278932;28;20116;-79
2022/08/08 20:19:25;;;;;;;5.97;4.78;;;16.10;99.90;;;;;;8309349;28;20025;-79
2022/08/08 20:23:27;;;;;;;5.32;4.82;;;16.00;99.90;;;;;;8300976;28;20029;-80
2022/08/08 20:27:28;;;;;;;5.78;5.20;;;15.90;99.90;;;;;;8269106;28;20064;-79
2022/08/08 20:31:29;;;;;;;6.40;4.63;;;15.90;99.90;;;;;;8192395;28;20025;-80
2022/08/08 20:35:30;;;;;;;5.97;5.13;;;15.90;99.90;;;;;;8176551;28;20025;-80
2022/08/08 20:39:33;;;;;;;10.80;5.20;;;15.80;99.90;;;;;;8205332;28;20028;-80
2022/08/08 20:43:35;;;;;;;6.05;5.25;;;15.60;99.90;;;;;;8178584;28;20028;-80
2022/08/08 20:47:35;;;;;;;6.07;5.47;;;15.40;99.90;;;;;;8243190;28;20031;-80
2022/08/08 20:51:36;;;;;;;6.40;5.38;;;15.50;99.90;;;;;;8261942;22;20526;-81
2022/08/08 20:55:37;;;;;;;8.77;5.65;;;15.40;99.90;;;;;;8255765;28;20019;-81
2022/08/08 20:59:37;;;;;;;7.13;5.55;;;15.30;99.90;;;;;;8247040;28;20030;-82
2022/08/08 21:03:38;;;;;;;9.32;5.82;;;15.20;99.90;;;;;;8247773;28;20044;-82
2022/08/08 21:07:39;;;;;;;6.53;5.85;;;15.30;99.90;;;;;;8253806;28;20018;-82
2022/08/08 21:11:39;;;;;;;7.03;6.20;;;15.50;99.90;;;;;;8249404;28;20027;-83
2022/08/08 21:15:40;;;;;;;6.93;6.00;;;15.30;99.90;;;;;;8257995;28;20022;-81
2022/08/08 21:19:40;;;;;;;6.75;6.07;;;15.10;99.90;;;;;;8251905;28;20023;-82